createdAt,value
2018-04-09T00:00:11.076Z,23.13
2018-04-09T00:02:37.264Z,22.47
2018-04-09T00:05:04.236Z,22.70
2018-04-09T00:07:30.415Z,23.00
2018-04-09T00:09:56.562Z,25.00
2018-04-09T00:12:23.469Z,23.60
2018-04-09T00:14:49.667Z,22.63
2018-04-09T00:17:16.048Z,22.70
2018-04-09T00:19:42.255Z,24.60
2018-04-09T00:22:08.451Z,24.07
2018-04-09T00:24:34.652Z,23.83
2018-04-09T00:27:01.647Z,25.40
2018-04-09T00:29:27.792Z,24.43
2018-04-09T00:31:54.719Z,24.27
2018-04-09T00:34:20.880Z,24.77
2018-04-09T00:36:47.072Z,24.57
2018-04-09T00:39:14.015Z,27.07
2018-04-09T00:41:40.212Z,23.90
2018-04-09T00:44:06.411Z,24.80
2018-04-09T00:46:33.319Z,25.37
2018-04-09T00:48:59.464Z,25.90
2018-04-09T00:51:25.820Z,25.97
2018-04-09T00:53:59.116Z,25.93
2018-04-09T00:56:25.289Z,25.87
2018-04-09T00:58:51.473Z,24.30
2018-04-09T01:01:17.626Z,25.83
2018-04-09T01:03:44.559Z,25.07
2018-04-09T01:06:10.744Z,25.73
2018-04-09T01:08:36.923Z,24.13
2018-04-09T01:11:03.084Z,26.13
2018-04-09T01:13:29.244Z,25.47
2018-04-09T01:15:55.451Z,25.63
2018-04-09T01:18:22.361Z,25.23
2018-04-09T01:20:50.048Z,26.27
2018-04-09T01:23:16.224Z,26.10
2018-04-09T01:25:42.397Z,25.23
2018-04-09T01:28:08.816Z,25.50
2018-04-09T01:30:34.996Z,26.70
2018-04-09T01:33:01.132Z,25.47
2018-04-09T01:35:27.337Z,26.20
2018-04-09T01:37:53.496Z,25.23
2018-04-09T01:40:19.679Z,27.53
2018-04-09T01:42:45.869Z,26.70
2018-04-09T01:45:12.039Z,26.67
2018-04-09T01:47:38.241Z,27.60
2018-04-09T01:50:05.172Z,27.90
2018-04-09T01:52:31.680Z,27.77
2018-04-09T01:54:57.832Z,28.77
2018-04-09T01:57:24.783Z,28.40
2018-04-09T01:59:50.947Z,27.83
2018-04-09T02:02:17.880Z,29.73
2018-04-09T02:04:45.537Z,30.27
2018-04-09T02:07:12.467Z,31.70
2018-04-09T02:09:38.655Z,28.97
2018-04-09T02:12:04.804Z,30.07
2018-04-09T02:14:30.959Z,30.40
2018-04-09T02:16:57.162Z,28.70
2018-04-09T02:19:24.053Z,31.50
2018-04-09T02:21:50.217Z,30.40
2018-04-09T02:24:16.403Z,29.50
2018-04-09T02:26:42.559Z,31.57
2018-04-09T02:29:08.746Z,29.67
2018-04-09T02:31:35.673Z,30.80
2018-04-09T02:34:02.615Z,31.60
2018-04-09T02:36:28.785Z,30.13
2018-04-09T02:38:54.957Z,30.13
2018-04-09T02:41:21.189Z,30.90
2018-04-09T02:43:47.359Z,31.50
2018-04-09T02:46:13.582Z,30.20
2018-04-09T02:48:40.508Z,31.40
2018-04-09T02:51:06.714Z,30.23
2018-04-09T02:53:33.108Z,32.00
2018-04-09T02:55:59.291Z,30.80
2018-04-09T02:58:25.487Z,32.20
2018-04-09T03:00:51.698Z,31.27
2018-04-09T03:03:17.891Z,31.60
2018-04-09T03:05:44.161Z,31.13
2018-04-09T03:08:10.305Z,30.50
2018-04-09T03:10:36.471Z,32.07
2018-04-09T03:13:02.655Z,31.30
2018-04-09T03:15:28.824Z,34.33
2018-04-09T03:17:55.736Z,32.83
2018-04-09T03:20:21.907Z,33.60
2018-04-09T03:22:48.091Z,34.03
2018-04-09T03:25:14.253Z,33.33
2018-04-09T03:27:40.429Z,33.47
2018-04-09T03:30:06.618Z,33.63
2018-04-09T03:32:32.776Z,33.50
2018-04-09T03:34:59.691Z,34.40
2018-04-09T03:37:25.882Z,34.53
2018-04-09T03:39:52.781Z,34.70
2018-04-09T03:42:18.983Z,32.17
2018-04-09T03:44:45.156Z,35.97
2018-04-09T03:47:12.835Z,36.20
2018-04-09T03:49:38.984Z,36.80
2018-04-09T03:52:05.145Z,35.87
2018-04-09T03:54:31.507Z,35.20
2018-04-09T03:56:57.928Z,32.80
2018-04-09T03:59:24.251Z,34.70
2018-04-09T04:01:50.459Z,35.10
2018-04-09T04:04:17.350Z,35.07
2018-04-09T04:06:43.528Z,35.40
2018-04-09T04:09:09.708Z,35.97
2018-04-09T04:11:35.901Z,35.63
2018-04-09T04:14:02.816Z,36.17
2018-04-09T04:16:41.560Z,35.20
2018-04-09T04:19:20.241Z,35.07
2018-04-09T04:21:46.408Z,35.60
2018-04-09T04:24:12.566Z,35.77
2018-04-09T04:26:38.754Z,33.93
2018-04-09T04:29:04.905Z,35.67
2018-04-09T04:31:31.048Z,35.50
2018-04-09T04:33:57.219Z,34.73
2018-04-09T04:36:23.359Z,35.57
2018-04-09T04:38:49.536Z,38.43
2018-04-09T04:41:15.708Z,36.77
2018-04-09T04:43:41.871Z,36.20
2018-04-09T04:46:08.084Z,34.37
2018-04-09T04:48:34.239Z,35.23
2018-04-09T04:51:00.403Z,34.60
2018-04-09T04:53:27.300Z,35.10
2018-04-09T04:55:53.700Z,35.53
2018-04-09T04:58:20.640Z,35.97
2018-04-09T05:00:47.556Z,36.17
2018-04-09T05:03:13.711Z,35.37
2018-04-09T05:05:39.882Z,34.23
2018-04-09T05:08:06.783Z,36.47
2018-04-09T05:10:33.034Z,36.43
2018-04-09T05:12:59.251Z,34.97
2018-04-09T05:15:25.420Z,34.33
2018-04-09T05:17:51.591Z,36.30
2018-04-09T05:20:17.803Z,35.40
2018-04-09T05:22:44.692Z,35.73
2018-04-09T05:25:10.867Z,37.90
2018-04-09T05:27:37.792Z,38.00
2018-04-09T05:30:03.939Z,36.57
2018-04-09T05:32:30.129Z,36.20
2018-04-09T05:34:56.272Z,36.50
2018-04-09T05:37:22.420Z,37.40
2018-04-09T05:39:48.620Z,39.10
2018-04-09T05:42:14.792Z,37.53
2018-04-09T05:44:40.952Z,37.57
2018-04-09T05:47:07.108Z,38.67
2018-04-09T05:49:33.289Z,36.37
2018-04-09T05:52:00.232Z,37.63
2018-04-09T05:54:26.420Z,38.93
2018-04-09T05:56:52.740Z,39.57
2018-04-09T05:59:19.672Z,38.33
2018-04-09T06:01:46.760Z,37.40
2018-04-09T06:04:13.737Z,38.20
2018-04-09T06:06:39.934Z,38.77
2018-04-09T06:09:06.836Z,37.43
2018-04-09T06:11:33.016Z,38.80
2018-04-09T06:13:59.159Z,40.27
2018-04-09T06:16:25.392Z,38.07
2018-04-09T06:18:51.665Z,38.33
2018-04-09T06:21:17.856Z,39.10
2018-04-09T06:23:44.803Z,39.60
2018-04-09T06:26:11.745Z,38.03
2018-04-09T06:28:37.981Z,38.07
2018-04-09T06:31:04.139Z,38.93
2018-04-09T06:33:31.006Z,37.33
2018-04-09T06:35:57.182Z,38.10
2018-04-09T06:38:24.811Z,36.63
2018-04-09T06:40:51.027Z,38.80
2018-04-09T06:43:17.254Z,38.63
2018-04-09T06:45:43.475Z,37.77
2018-04-09T06:48:09.687Z,39.50
2018-04-09T06:50:35.856Z,37.80
2018-04-09T06:53:02.040Z,38.33
2018-04-09T06:55:28.207Z,39.33
2018-04-09T06:57:54.519Z,39.60
2018-04-09T07:00:20.659Z,40.00
2018-04-09T07:02:47.025Z,39.13
2018-04-09T07:05:13.937Z,38.70
2018-04-09T07:07:40.108Z,39.80
2018-04-09T07:10:07.017Z,38.80
2018-04-09T07:12:33.960Z,37.40
2018-04-09T07:15:00.137Z,38.83
2018-04-09T07:17:27.071Z,37.73
2018-04-09T07:19:53.272Z,37.70
2018-04-09T07:22:19.436Z,36.33
2018-04-09T07:24:45.609Z,38.10
2018-04-09T07:27:11.763Z,37.47
2018-04-09T07:29:37.976Z,37.47
2018-04-09T07:32:04.133Z,36.37
2018-04-09T07:34:30.313Z,38.20
2018-04-09T07:36:56.490Z,38.00
2018-04-09T07:39:22.691Z,36.97
2018-04-09T07:41:48.899Z,38.10
2018-04-09T07:44:15.037Z,37.27
2018-04-09T07:46:41.213Z,38.60
2018-04-09T07:49:07.403Z,38.23
2018-04-09T07:51:33.559Z,38.07
2018-04-09T07:53:59.739Z,38.50
2018-04-09T07:56:25.952Z,38.70
2018-04-09T07:58:53.226Z,35.60
2018-04-09T08:01:19.392Z,37.73
2018-04-09T08:03:45.949Z,38.60
2018-04-09T08:06:12.172Z,42.30
2018-04-09T08:08:38.300Z,40.10
2018-04-09T08:11:04.526Z,38.33
2018-04-09T08:13:30.688Z,36.93
2018-04-09T08:15:57.612Z,39.37
2018-04-09T08:18:23.815Z,35.07
2018-04-09T08:20:50.227Z,36.30
2018-04-09T08:23:16.388Z,37.97
2018-04-09T08:25:42.602Z,37.70
2018-04-09T08:28:08.964Z,34.17
2018-04-09T08:30:35.129Z,36.27
2018-04-09T08:33:02.072Z,35.57
2018-04-09T08:35:28.283Z,36.53
2018-04-09T08:37:54.440Z,34.00
2018-04-09T08:40:20.649Z,36.97
2018-04-09T08:42:46.827Z,35.80
2018-04-09T08:45:13.749Z,36.77
2018-04-09T08:47:39.927Z,35.90
2018-04-09T08:50:06.103Z,38.90
2018-04-09T08:52:32.255Z,33.40
2018-04-09T08:54:58.443Z,35.67
2018-04-09T08:57:24.607Z,37.10
2018-04-09T08:59:50.952Z,35.13
2018-04-09T09:02:17.108Z,35.23
2018-04-09T09:04:44.068Z,35.43
2018-04-09T09:07:10.278Z,35.33
2018-04-09T09:09:36.437Z,37.40
2018-04-09T09:12:02.620Z,36.00
2018-04-09T09:14:28.800Z,33.93
2018-04-09T09:16:55.730Z,36.37
2018-04-09T09:19:21.880Z,34.30
2018-04-09T09:21:48.057Z,36.77
2018-04-09T09:24:14.256Z,34.63
2018-04-09T09:26:41.169Z,35.50
2018-04-09T09:29:07.364Z,35.30
2018-04-09T09:31:33.541Z,32.77
2018-04-09T09:33:59.732Z,33.90
2018-04-09T09:36:25.891Z,34.70
2018-04-09T09:38:52.073Z,32.50
2018-04-09T09:41:18.225Z,34.50
2018-04-09T09:43:44.399Z,33.57
2018-04-09T09:46:10.596Z,34.50
2018-04-09T09:48:36.763Z,32.40
2018-04-09T09:51:02.952Z,31.97
2018-04-09T09:53:29.104Z,35.20
2018-04-09T09:55:55.288Z,34.37
2018-04-09T09:58:22.191Z,33.87
2018-04-09T10:00:48.560Z,35.67
2018-04-09T10:03:20.884Z,34.50
2018-04-09T10:05:57.576Z,35.70
2018-04-09T10:08:23.725Z,35.80
2018-04-09T10:10:49.908Z,34.50
2018-04-09T10:13:16.823Z,31.43
2018-04-09T10:15:43.012Z,34.47
2018-04-09T10:18:09.219Z,33.53
2018-04-09T10:20:35.387Z,31.90
2018-04-09T10:23:01.569Z,30.50
2018-04-09T10:25:27.752Z,32.33
2018-04-09T10:27:53.944Z,34.97
2018-04-09T10:30:20.135Z,33.90
2018-04-09T10:32:46.348Z,36.80
2018-04-09T10:35:12.511Z,34.43
2018-04-09T10:37:38.668Z,34.53
2018-04-09T10:40:05.595Z,33.60
2018-04-09T10:42:31.768Z,34.50
2018-04-09T10:44:58.205Z,35.63
2018-04-09T10:47:25.168Z,34.00
2018-04-09T10:49:51.332Z,36.33
2018-04-09T10:52:17.805Z,33.13
2018-04-09T10:54:43.975Z,37.63
2018-04-09T10:57:10.160Z,35.23
2018-04-09T10:59:36.364Z,36.40
2018-04-09T11:02:02.796Z,37.10
2018-04-09T11:04:28.972Z,33.63
2018-04-09T11:06:55.185Z,35.67
2018-04-09T11:09:21.346Z,35.83
2018-04-09T11:11:48.311Z,35.20
2018-04-09T11:14:15.203Z,38.83
2018-04-09T11:16:41.364Z,41.60
2018-04-09T11:19:07.532Z,38.67
2018-04-09T11:21:34.472Z,38.90
2018-04-09T11:24:00.650Z,38.37
2018-04-09T11:26:26.821Z,40.17
2018-04-09T11:28:53.004Z,40.40
2018-04-09T11:31:19.192Z,39.83
2018-04-09T11:33:45.356Z,39.37
2018-04-09T11:36:12.259Z,39.70
2018-04-09T11:38:38.543Z,37.57
2018-04-09T11:41:05.540Z,37.57
2018-04-09T11:43:31.686Z,36.10
2018-04-09T11:45:57.874Z,37.77
2018-04-09T11:48:24.050Z,39.20
2018-04-09T11:50:50.257Z,37.97
2018-04-09T11:53:16.410Z,37.70
2018-04-09T11:55:42.586Z,39.67
2018-04-09T11:58:09.570Z,39.73
2018-04-09T12:00:35.757Z,37.30
2018-04-09T12:03:02.122Z,40.17
2018-04-09T12:05:29.010Z,37.20
2018-04-09T12:07:55.301Z,34.27
2018-04-09T12:10:22.277Z,39.30
2018-04-09T12:12:48.470Z,37.20
2018-04-09T12:15:15.415Z,39.10
2018-04-09T12:17:42.375Z,35.10
2018-04-09T12:20:08.597Z,43.13
2018-04-09T12:22:34.818Z,41.33
2018-04-09T12:25:00.990Z,40.70
2018-04-09T12:27:27.887Z,40.50
2018-04-09T12:29:54.053Z,42.33
2018-04-09T12:32:20.985Z,40.30
2018-04-09T12:34:47.194Z,40.63
2018-04-09T12:37:13.382Z,38.13
2018-04-09T12:39:39.574Z,40.70
2018-04-09T12:42:06.544Z,43.13
2018-04-09T12:44:32.787Z,42.80
2018-04-09T12:46:58.933Z,39.30
2018-04-09T12:49:25.890Z,44.27
2018-04-09T12:51:52.813Z,45.07
2018-04-09T12:54:18.982Z,41.43
2018-04-09T12:56:45.900Z,44.50
2018-04-09T12:59:12.063Z,40.83
2018-04-09T13:01:39.196Z,43.30
2018-04-09T13:04:05.633Z,43.17
2018-04-09T13:06:31.818Z,44.87
2018-04-09T13:08:58.110Z,40.70
2018-04-09T13:11:25.063Z,42.47
2018-04-09T13:13:51.988Z,42.50
2018-04-09T13:16:18.160Z,43.60
2018-04-09T13:18:44.362Z,46.53
2018-04-09T13:21:10.571Z,43.57
2018-04-09T13:23:37.517Z,42.53
2018-04-09T13:26:03.705Z,44.30
2018-04-09T13:28:30.617Z,44.00
2018-04-09T13:30:57.569Z,46.87
2018-04-09T13:33:23.774Z,50.43
2018-04-09T13:35:49.957Z,46.70
2018-04-09T13:38:16.117Z,50.10
2018-04-09T13:40:42.285Z,45.93
2018-04-09T13:43:08.466Z,48.20
2018-04-09T13:45:35.439Z,47.37
2018-04-09T13:48:01.660Z,47.60
2018-04-09T13:50:27.926Z,47.00
2018-04-09T13:52:54.084Z,44.43
2018-04-09T13:55:20.309Z,46.70
2018-04-09T13:57:46.513Z,46.80
2018-04-09T14:00:12.696Z,46.23
2018-04-09T14:02:38.866Z,46.93
2018-04-09T14:05:05.321Z,49.10
2018-04-09T14:07:31.489Z,46.87
2018-04-09T14:09:57.657Z,44.87
2018-04-09T14:12:24.058Z,49.60
2018-04-09T14:14:50.266Z,46.37
2018-04-09T14:17:16.458Z,47.80
2018-04-09T14:22:14.392Z,49.47
2018-04-09T14:24:41.558Z,49.00
2018-04-09T14:27:07.745Z,47.00
2018-04-09T14:29:34.643Z,49.00
2018-04-09T14:32:00.839Z,49.80
2018-04-09T14:34:27.780Z,50.00
2018-04-09T14:36:53.914Z,49.40
2018-04-09T14:39:20.817Z,47.80
2018-04-09T14:41:47.008Z,48.57
2018-04-09T14:44:13.231Z,46.90
2018-04-09T14:46:40.192Z,47.70
2018-04-09T14:49:07.089Z,47.43
2018-04-09T14:51:33.237Z,45.80
2018-04-09T14:54:00.178Z,50.90
2018-04-09T14:56:26.370Z,52.70
2018-04-09T14:58:52.573Z,52.90
2018-04-09T15:01:18.850Z,61.37
2018-04-09T15:03:45.058Z,52.30
2018-04-09T15:06:11.475Z,54.27
2018-04-09T15:08:37.684Z,54.40
2018-04-09T15:11:04.042Z,50.60
2018-04-09T15:13:30.270Z,50.67
2018-04-09T15:15:56.445Z,52.97
2018-04-09T15:18:22.617Z,52.93
2018-04-09T15:20:48.784Z,54.37
2018-04-09T15:23:15.734Z,52.20
2018-04-09T15:25:41.930Z,61.87
2018-04-09T15:28:08.166Z,53.90
2018-04-09T15:30:34.357Z,54.80
2018-04-09T15:33:01.281Z,53.97
2018-04-09T15:35:27.442Z,56.13
2018-04-09T15:37:53.699Z,55.20
2018-04-09T15:40:19.930Z,59.50
2018-04-09T15:42:46.143Z,53.53
2018-04-09T15:45:13.096Z,54.37
2018-04-09T15:47:40.031Z,56.40
2018-04-09T15:50:06.943Z,55.70
2018-04-09T15:52:33.173Z,54.53
2018-04-09T15:54:59.361Z,57.37
2018-04-09T15:57:27.004Z,57.47
2018-04-09T15:59:53.241Z,57.20
2018-04-09T16:02:19.422Z,55.47
2018-04-09T16:04:45.566Z,56.63
2018-04-09T16:07:11.934Z,55.27
2018-04-09T16:09:38.118Z,57.97
2018-04-09T16:12:04.447Z,64.03
2018-04-09T16:14:30.617Z,61.37
2018-04-09T16:16:56.824Z,57.97
2018-04-09T16:19:23.018Z,52.90
2018-04-09T16:21:49.202Z,56.80
2018-04-09T16:24:15.340Z,56.13
2018-04-09T16:26:41.494Z,56.00
2018-04-09T16:29:07.690Z,51.87
2018-04-09T16:31:33.849Z,55.07
2018-04-09T16:34:00.037Z,59.07
2018-04-09T16:36:26.278Z,58.90
2018-04-09T16:38:52.446Z,57.77
2018-04-09T16:41:18.683Z,53.37
2018-04-09T16:43:44.849Z,53.40
2018-04-09T16:46:11.025Z,59.87
2018-04-09T16:48:37.250Z,55.37
2018-04-09T16:51:04.187Z,52.50
2018-04-09T16:53:31.098Z,51.53
2018-04-09T16:55:57.261Z,53.27
2018-04-09T16:58:24.217Z,51.17
2018-04-09T17:00:50.385Z,49.00
2018-04-09T17:03:16.544Z,52.57
2018-04-09T17:05:42.710Z,49.97
2018-04-09T17:08:09.056Z,51.03
2018-04-09T17:10:35.949Z,51.50
2018-04-09T17:13:02.119Z,49.97
2018-04-09T17:15:28.273Z,51.83
2018-04-09T17:17:55.170Z,49.33
2018-04-09T17:20:21.334Z,49.60
2018-04-09T17:22:47.498Z,50.50
2018-04-09T17:25:13.675Z,56.80
2018-04-09T17:27:39.857Z,52.50
2018-04-09T17:30:06.789Z,51.93
2018-04-09T17:32:33.058Z,48.53
2018-04-09T17:34:59.218Z,53.07
2018-04-09T17:37:25.374Z,50.00
2018-04-09T17:39:51.530Z,50.17
2018-04-09T17:42:17.699Z,50.77
2018-04-09T17:44:43.834Z,51.87
2018-04-09T17:47:10.002Z,51.40
2018-04-09T17:49:43.278Z,52.10
2018-04-09T17:52:09.462Z,51.60
2018-04-09T17:54:36.374Z,51.50
2018-04-09T17:57:02.541Z,49.80
2018-04-09T17:59:29.476Z,55.77
2018-04-09T18:01:55.642Z,53.23
2018-04-09T18:04:21.841Z,51.93
2018-04-09T18:06:47.960Z,53.63
2018-04-09T18:09:14.278Z,52.90
2018-04-09T18:11:40.433Z,49.27
2018-04-09T18:14:06.680Z,51.90
2018-04-09T18:16:32.830Z,50.97
2018-04-09T18:18:59.725Z,49.03
2018-04-09T18:21:25.885Z,50.27
2018-04-09T18:23:52.058Z,52.80
2018-04-09T18:26:18.239Z,58.80
2018-04-09T18:28:44.398Z,56.27
2018-04-09T18:31:10.550Z,53.63
2018-04-09T18:33:37.438Z,49.13
2018-04-09T18:36:03.593Z,54.80
2018-04-09T18:38:29.763Z,53.30
2018-04-09T18:40:56.654Z,51.27
2018-04-09T18:43:22.813Z,53.93
2018-04-09T18:45:49.711Z,51.80
2018-04-09T18:48:16.649Z,52.60
2018-04-09T18:50:43.518Z,54.27
2018-04-09T18:53:09.670Z,53.17
2018-04-09T18:55:35.821Z,53.30
2018-04-09T18:58:01.998Z,54.93
2018-04-09T19:00:28.894Z,80.13
2018-04-09T19:02:55.041Z,90.20
2018-04-09T19:05:21.222Z,63.80
2018-04-09T19:07:47.416Z,55.23
2018-04-09T19:10:13.742Z,53.40
2018-04-09T19:12:39.902Z,57.40
2018-04-09T19:15:06.072Z,59.87
2018-04-09T19:17:32.242Z,57.57
2018-04-09T19:19:58.406Z,56.50
2018-04-09T19:22:26.937Z,57.47
2018-04-09T19:24:53.525Z,57.13
2018-04-09T19:27:19.690Z,56.60
2018-04-09T19:29:46.590Z,54.53
2018-04-09T19:32:12.733Z,55.97
2018-04-09T19:34:46.047Z,55.20
2018-04-09T19:37:19.270Z,55.73
2018-04-09T19:39:51.661Z,57.47
2018-04-09T19:42:36.760Z,57.00
2018-04-09T19:45:15.293Z,60.13
2018-04-09T19:47:45.092Z,55.73
2018-04-09T19:50:12.805Z,57.50
2018-04-09T19:52:39.282Z,60.50
2018-04-09T19:55:06.499Z,60.50
2018-04-09T19:57:32.801Z,56.20
2018-04-09T20:00:02.946Z,62.27
2018-04-09T20:02:30.182Z,56.40
2018-04-09T20:04:57.616Z,58.00
2018-04-09T20:07:24.049Z,60.77
2018-04-09T20:09:50.393Z,58.97
2018-04-09T20:12:16.946Z,61.23
2018-04-09T20:14:43.503Z,62.40
2018-04-09T20:17:10.352Z,61.70
2018-04-09T20:19:36.996Z,60.57
2018-04-09T20:22:03.642Z,62.17
2018-04-09T20:24:30.032Z,59.90
2018-04-09T20:26:57.132Z,59.40
2018-04-09T20:29:23.677Z,63.07
2018-04-09T20:31:50.321Z,61.23
2018-04-09T20:34:16.855Z,64.83
2018-04-09T20:36:43.170Z,62.60
2018-04-09T20:39:09.610Z,64.67
2018-04-09T20:41:36.830Z,66.57
2018-04-09T20:44:03.049Z,66.97
2018-04-09T20:46:29.240Z,69.60
2018-04-09T20:48:55.452Z,74.20
2018-04-09T20:51:21.665Z,70.77
2018-04-09T20:53:47.870Z,71.90
2018-04-09T20:56:14.849Z,72.00
2018-04-09T20:58:41.074Z,69.33
2018-04-09T21:01:07.285Z,69.20
2018-04-09T21:03:34.227Z,71.70
2018-04-09T21:06:01.166Z,72.37
2018-04-09T21:08:27.374Z,69.30
2018-04-09T21:10:53.610Z,71.17
2018-04-09T21:13:19.977Z,71.67
2018-04-09T21:15:46.169Z,73.30
2018-04-09T21:18:12.377Z,72.77
2018-04-09T21:20:38.593Z,73.00
2018-04-09T21:23:05.550Z,73.43
2018-04-09T21:25:32.493Z,71.43
2018-04-09T21:27:58.717Z,72.60
2018-04-09T21:30:25.654Z,75.23
2018-04-09T21:32:51.837Z,71.40
2018-04-09T21:35:18.029Z,74.40
2018-04-09T21:37:44.220Z,71.90
2018-04-09T21:40:10.444Z,72.33
2018-04-09T21:42:41.581Z,69.67
2018-04-09T21:45:07.821Z,71.87
2018-04-09T21:47:34.008Z,73.80
2018-04-09T21:50:00.216Z,72.30
2018-04-09T21:52:26.577Z,71.60
2018-04-09T21:54:52.780Z,67.37
2018-04-09T21:57:18.977Z,71.80
2018-04-09T21:59:45.185Z,71.93
2018-04-09T22:02:12.133Z,67.80
2018-04-09T22:04:38.337Z,68.70
2018-04-09T22:07:04.528Z,67.33
2018-04-09T22:09:31.468Z,70.07
2018-04-09T22:11:58.402Z,72.73
2018-04-09T22:14:24.777Z,67.17
2018-04-09T22:16:50.969Z,68.00
2018-04-09T22:19:17.470Z,70.10
2018-04-09T22:21:43.660Z,71.80
2018-04-09T22:24:10.625Z,66.30
2018-04-09T22:26:37.565Z,71.40
2018-04-09T22:29:03.756Z,71.37
2018-04-09T22:31:29.966Z,70.43
2018-04-09T22:33:56.179Z,69.00
2018-04-09T22:36:22.381Z,72.30
2018-04-09T22:38:49.340Z,72.47
2018-04-09T22:41:15.549Z,68.97
2018-04-09T22:43:42.743Z,69.20
2018-04-09T22:46:09.669Z,70.57
2018-04-09T22:48:35.891Z,70.77
2018-04-09T22:51:02.145Z,69.40
2018-04-09T22:53:28.349Z,71.00
2018-04-09T22:55:54.557Z,73.83
2018-04-09T22:58:20.761Z,70.37
2018-04-09T23:00:46.958Z,67.23
2018-04-09T23:03:13.181Z,67.60
2018-04-09T23:05:39.400Z,71.77
2018-04-09T23:08:05.604Z,69.10
2018-04-09T23:10:32.549Z,65.87
2018-04-09T23:12:58.756Z,67.20
2018-04-09T23:15:25.137Z,66.97
2018-04-09T23:17:52.084Z,67.30
2018-04-09T23:20:19.264Z,68.73
2018-04-09T23:22:45.505Z,66.93
2018-04-09T23:25:11.717Z,69.43
2018-04-09T23:27:38.652Z,65.70
2018-04-09T23:30:05.647Z,68.33
2018-04-09T23:32:31.929Z,70.10
2018-04-09T23:34:58.202Z,64.20
2018-04-09T23:37:24.485Z,66.40
2018-04-09T23:39:50.781Z,66.70
2018-04-09T23:42:17.010Z,69.53
2018-04-09T23:44:43.978Z,70.83
2018-04-09T23:47:10.142Z,68.80
2018-04-09T23:49:36.297Z,66.83
2018-04-09T23:52:02.455Z,65.73
2018-04-09T23:54:29.403Z,65.70
2018-04-09T23:56:56.329Z,65.40
2018-04-09T23:59:22.533Z,66.83
